Oakwood, Ohio
Current Conditions -  °F | °C
As of 8:53 AM on Friday 19 Dec 2014 (Local Time) from KDFI Reporting Station
Haze Haze  
Wind Chill: -5°   Ceiling: 2100
Heat Index: -2°   Visibility: 6mi
Dew Point: -4°   Wind: 5mph
Humidity: 82%   Direction: 310°NW
Pressure: 30.27"   Gusts: NA
Location:  41.1°N, 84.38°W
Report Text: KDFI 191353Z AUTO 31004KT 6SM HZ OVC021 M02/M04 A3027 RMK AO2 SLP259 T10171044 TSNO
Loading
Personal Weather Stations






























Interactive Weather Map New forecast layout! Learn more

10-Day Weather Forecast

Advertisements
Track Severe Weather on mobile